sensor_id;sensor_type;location;lat;lon;timestamp;temperature;humidity
55634;DHT22;41504;53.162;6.788;2023-08-17T00:00:08;17.30;85.60
55634;DHT22;41504;53.162;6.788;2023-08-17T00:02:35;17.30;85.90
55634;DHT22;41504;53.162;6.788;2023-08-17T00:05:01;17.30;86.10
55634;DHT22;41504;53.162;6.788;2023-08-17T00:07:27;17.30;86.40
55634;DHT22;41504;53.162;6.788;2023-08-17T00:09:53;17.30;86.40
55634;DHT22;41504;53.162;6.788;2023-08-17T00:12:18;17.30;86.30
55634;DHT22;41504;53.162;6.788;2023-08-17T00:14:50;17.30;86.40
55634;DHT22;41504;53.162;6.788;2023-08-17T00:17:16;17.20;86.60
55634;DHT22;41504;53.162;6.788;2023-08-17T00:19:42;17.30;86.70
55634;DHT22;41504;53.162;6.788;2023-08-17T00:22:10;17.30;86.70
55634;DHT22;41504;53.162;6.788;2023-08-17T00:24:39;17.30;86.50
55634;DHT22;41504;53.162;6.788;2023-08-17T00:27:07;17.30;86.60
55634;DHT22;41504;53.162;6.788;2023-08-17T00:29:33;17.30;86.60
55634;DHT22;41504;53.162;6.788;2023-08-17T00:32:01;17.30;86.50
55634;DHT22;41504;53.162;6.788;2023-08-17T00:34:27;17.20;86.80
55634;DHT22;41504;53.162;6.788;2023-08-17T00:36:52;17.20;87.70
55634;DHT22;41504;53.162;6.788;2023-08-17T00:39:18;17.10;87.20
55634;DHT22;41504;53.162;6.788;2023-08-17T00:41:45;17.10;87.30
55634;DHT22;41504;53.162;6.788;2023-08-17T00:44:11;17.10;87.40
55634;DHT22;41504;53.162;6.788;2023-08-17T00:46:38;17.10;87.50
55634;DHT22;41504;53.162;6.788;2023-08-17T00:49:04;17.10;87.50
55634;DHT22;41504;53.162;6.788;2023-08-17T00:51:31;17.20;87.60
55634;DHT22;41504;53.162;6.788;2023-08-17T00:53:58;17.20;87.80
55634;DHT22;41504;53.162;6.788;2023-08-17T00:56:26;17.20;87.70
55634;DHT22;41504;53.162;6.788;2023-08-17T00:58:52;17.20;87.60
55634;DHT22;41504;53.162;6.788;2023-08-17T01:01:19;17.20;87.70
55634;DHT22;41504;53.162;6.788;2023-08-17T01:03:45;17.20;87.70
55634;DHT22;41504;53.162;6.788;2023-08-17T01:06:11;17.20;87.70
55634;DHT22;41504;53.162;6.788;2023-08-17T01:08:38;17.20;87.70
55634;DHT22;41504;53.162;6.788;2023-08-17T01:11:29;17.20;87.70
55634;DHT22;41504;53.162;6.788;2023-08-17T01:14:04;17.20;87.60
55634;DHT22;41504;53.162;6.788;2023-08-17T01:16:52;17.10;87.70
55634;DHT22;41504;53.162;6.788;2023-08-17T01:19:27;17.10;87.70
55634;DHT22;41504;53.162;6.788;2023-08-17T01:22:05;17.00;88.00
55634;DHT22;41504;53.162;6.788;2023-08-17T01:24:31;17.00;88.10
55634;DHT22;41504;53.162;6.788;2023-08-17T01:26:57;16.90;88.20
55634;DHT22;41504;53.162;6.788;2023-08-17T01:29:23;17.00;88.50
55634;DHT22;41504;53.162;6.788;2023-08-17T01:32:16;16.90;88.40
55634;DHT22;41504;53.162;6.788;2023-08-17T01:35:01;16.90;88.20
55634;DHT22;41504;53.162;6.788;2023-08-17T01:37:31;16.90;88.60
55634;DHT22;41504;53.162;6.788;2023-08-17T01:39:59;16.90;88.70
55634;DHT22;41504;53.162;6.788;2023-08-17T01:42:26;16.90;88.60
55634;DHT22;41504;53.162;6.788;2023-08-17T01:44:52;16.80;88.60
55634;DHT22;41504;53.162;6.788;2023-08-17T01:47:24;16.80;88.60
55634;DHT22;41504;53.162;6.788;2023-08-17T01:49:50;16.80;88.70
55634;DHT22;41504;53.162;6.788;2023-08-17T01:52:15;16.80;88.70
55634;DHT22;41504;53.162;6.788;2023-08-17T01:54:41;16.80;88.80
55634;DHT22;41504;53.162;6.788;2023-08-17T01:57:07;16.70;88.80
55634;DHT22;41504;53.162;6.788;2023-08-17T01:59:33;16.70;89.00
55634;DHT22;41504;53.162;6.788;2023-08-17T02:02:00;16.60;89.30
55634;DHT22;41504;53.162;6.788;2023-08-17T02:04:25;16.50;89.50
55634;DHT22;41504;53.162;6.788;2023-08-17T02:06:51;16.50;89.60
55634;DHT22;41504;53.162;6.788;2023-08-17T02:09:17;16.50;89.70
55634;DHT22;41504;53.162;6.788;2023-08-17T02:11:42;16.40;90.00
55634;DHT22;41504;53.162;6.788;2023-08-17T02:14:08;16.40;90.00
55634;DHT22;41504;53.162;6.788;2023-08-17T02:16:34;16.40;90.00
55634;DHT22;41504;53.162;6.788;2023-08-17T02:18:59;16.40;90.00
55634;DHT22;41504;53.162;6.788;2023-08-17T02:21:25;16.40;90.10
55634;DHT22;41504;53.162;6.788;2023-08-17T02:23:51;16.40;90.10
55634;DHT22;41504;53.162;6.788;2023-08-17T02:26:17;16.30;90.10
55634;DHT22;41504;53.162;6.788;2023-08-17T02:28:42;16.30;90.20
55634;DHT22;41504;53.162;6.788;2023-08-17T02:31:08;16.30;90.30
55634;DHT22;41504;53.162;6.788;2023-08-17T02:33:34;16.30;90.30
55634;DHT22;41504;53.162;6.788;2023-08-17T02:36:02;16.30;90.30
55634;DHT22;41504;53.162;6.788;2023-08-17T02:38:28;16.30;90.30
55634;DHT22;41504;53.162;6.788;2023-08-17T02:40:53;16.40;90.30
55634;DHT22;41504;53.162;6.788;2023-08-17T02:43:19;16.30;90.40
55634;DHT22;41504;53.162;6.788;2023-08-17T02:45:48;16.30;90.40
55634;DHT22;41504;53.162;6.788;2023-08-17T02:48:13;16.30;90.50
55634;DHT22;41504;53.162;6.788;2023-08-17T02:50:39;16.30;90.50
55634;DHT22;41504;53.162;6.788;2023-08-17T02:53:05;16.30;90.50
55634;DHT22;41504;53.162;6.788;2023-08-17T02:55:30;16.40;90.60
55634;DHT22;41504;53.162;6.788;2023-08-17T02:57:56;16.40;90.50
55634;DHT22;41504;53.162;6.788;2023-08-17T03:00:22;16.40;90.50
55634;DHT22;41504;53.162;6.788;2023-08-17T03:02:47;16.30;90.50
55634;DHT22;41504;53.162;6.788;2023-08-17T03:05:13;16.30;90.50
55634;DHT22;41504;53.162;6.788;2023-08-17T03:07:39;16.30;90.60
55634;DHT22;41504;53.162;6.788;2023-08-17T03:10:09;16.30;90.70
55634;DHT22;41504;53.162;6.788;2023-08-17T03:12:35;16.20;90.70
55634;DHT22;41504;53.162;6.788;2023-08-17T03:15:10;16.30;90.80
55634;DHT22;41504;53.162;6.788;2023-08-17T03:17:35;16.30;90.80
55634;DHT22;41504;53.162;6.788;2023-08-17T03:20:05;16.20;90.90
55634;DHT22;41504;53.162;6.788;2023-08-17T03:22:33;16.20;91.10
55634;DHT22;41504;53.162;6.788;2023-08-17T03:24:59;16.10;91.20
55634;DHT22;41504;53.162;6.788;2023-08-17T03:27:25;16.10;91.30
55634;DHT22;41504;53.162;6.788;2023-08-17T03:29:51;16.10;91.20
55634;DHT22;41504;53.162;6.788;2023-08-17T03:32:17;16.10;91.20
55634;DHT22;41504;53.162;6.788;2023-08-17T03:34:42;16.10;91.30
55634;DHT22;41504;53.162;6.788;2023-08-17T03:37:08;16.10;91.40
55634;DHT22;41504;53.162;6.788;2023-08-17T03:39:34;16.10;91.40
55634;DHT22;41504;53.162;6.788;2023-08-17T03:42:00;16.10;91.40
55634;DHT22;41504;53.162;6.788;2023-08-17T03:44:25;16.10;91.40
55634;DHT22;41504;53.162;6.788;2023-08-17T03:46:51;16.10;91.40
55634;DHT22;41504;53.162;6.788;2023-08-17T03:49:17;16.10;91.40
55634;DHT22;41504;53.162;6.788;2023-08-17T03:51:42;16.10;91.50
55634;DHT22;41504;53.162;6.788;2023-08-17T03:54:08;16.00;91.50
55634;DHT22;41504;53.162;6.788;2023-08-17T03:56:34;16.00;91.60
55634;DHT22;41504;53.162;6.788;2023-08-17T03:58:59;16.00;91.60
55634;DHT22;41504;53.162;6.788;2023-08-17T04:01:25;16.00;91.70
55634;DHT22;41504;53.162;6.788;2023-08-17T04:03:51;15.90;91.70
55634;DHT22;41504;53.162;6.788;2023-08-17T04:06:16;15.90;91.80
55634;DHT22;41504;53.162;6.788;2023-08-17T04:08:42;15.90;91.80
55634;DHT22;41504;53.162;6.788;2023-08-17T04:11:08;15.80;91.90
55634;DHT22;41504;53.162;6.788;2023-08-17T04:13:33;15.80;91.90
55634;DHT22;41504;53.162;6.788;2023-08-17T04:15:59;15.80;92.00
55634;DHT22;41504;53.162;6.788;2023-08-17T04:18:25;15.80;92.00
55634;DHT22;41504;53.162;6.788;2023-08-17T04:20:51;15.80;92.00
55634;DHT22;41504;53.162;6.788;2023-08-17T04:23:17;15.80;92.00
55634;DHT22;41504;53.162;6.788;2023-08-17T04:26:00;15.80;92.10
55634;DHT22;41504;53.162;6.788;2023-08-17T04:28:39;15.80;92.00
55634;DHT22;41504;53.162;6.788;2023-08-17T04:31:05;15.70;92.30
55634;DHT22;41504;53.162;6.788;2023-08-17T04:33:32;15.70;92.10
55634;DHT22;41504;53.162;6.788;2023-08-17T04:35:58;15.70;92.10
55634;DHT22;41504;53.162;6.788;2023-08-17T04:38:25;15.70;92.20
55634;DHT22;41504;53.162;6.788;2023-08-17T04:40:51;15.70;92.30
55634;DHT22;41504;53.162;6.788;2023-08-17T04:43:16;15.70;92.30
55634;DHT22;41504;53.162;6.788;2023-08-17T04:45:42;15.70;92.30
55634;DHT22;41504;53.162;6.788;2023-08-17T04:48:09;15.70;92.40
55634;DHT22;41504;53.162;6.788;2023-08-17T04:50:35;15.70;92.40
55634;DHT22;41504;53.162;6.788;2023-08-17T04:53:03;15.70;92.40
55634;DHT22;41504;53.162;6.788;2023-08-17T04:55:29;15.70;92.40
55634;DHT22;41504;53.162;6.788;2023-08-17T04:57:57;15.70;92.40
55634;DHT22;41504;53.162;6.788;2023-08-17T05:00:23;15.70;92.40
55634;DHT22;41504;53.162;6.788;2023-08-17T05:02:55;15.70;92.50
55634;DHT22;41504;53.162;6.788;2023-08-17T05:05:20;15.70;92.50
55634;DHT22;41504;53.162;6.788;2023-08-17T05:07:46;15.70;92.50
55634;DHT22;41504;53.162;6.788;2023-08-17T05:10:12;15.70;92.40
55634;DHT22;41504;53.162;6.788;2023-08-17T05:12:38;15.70;92.50
55634;DHT22;41504;53.162;6.788;2023-08-17T05:15:07;15.70;92.50
55634;DHT22;41504;53.162;6.788;2023-08-17T05:17:33;15.70;92.60
55634;DHT22;41504;53.162;6.788;2023-08-17T05:19:59;15.70;92.70
55634;DHT22;41504;53.162;6.788;2023-08-17T05:22:24;15.70;92.70
55634;DHT22;41504;53.162;6.788;2023-08-17T05:24:50;15.70;92.80
55634;DHT22;41504;53.162;6.788;2023-08-17T05:27:16;15.60;92.80
55634;DHT22;41504;53.162;6.788;2023-08-17T05:29:41;15.60;93.10
55634;DHT22;41504;53.162;6.788;2023-08-17T05:32:07;15.60;92.90
55634;DHT22;41504;53.162;6.788;2023-08-17T05:34:33;15.60;93.00
55634;DHT22;41504;53.162;6.788;2023-08-17T05:36:59;15.70;93.00
55634;DHT22;41504;53.162;6.788;2023-08-17T05:39:25;15.70;92.90
55634;DHT22;41504;53.162;6.788;2023-08-17T05:41:51;15.80;93.00
55634;DHT22;41504;53.162;6.788;2023-08-17T05:44:17;15.90;93.00
55634;DHT22;41504;53.162;6.788;2023-08-17T05:46:43;15.90;93.00
55634;DHT22;41504;53.162;6.788;2023-08-17T05:49:12;16.00;93.00
55634;DHT22;41504;53.162;6.788;2023-08-17T05:51:38;16.10;92.90
55634;DHT22;41504;53.162;6.788;2023-08-17T05:54:04;16.10;92.80
55634;DHT22;41504;53.162;6.788;2023-08-17T05:56:29;16.20;92.80
55634;DHT22;41504;53.162;6.788;2023-08-17T05:58:55;16.20;92.80
55634;DHT22;41504;53.162;6.788;2023-08-17T06:01:21;16.40;92.80
55634;DHT22;41504;53.162;6.788;2023-08-17T06:03:50;16.40;92.70
55634;DHT22;41504;53.162;6.788;2023-08-17T06:06:16;16.50;92.70
55634;DHT22;41504;53.162;6.788;2023-08-17T06:08:41;16.60;92.60
55634;DHT22;41504;53.162;6.788;2023-08-17T06:11:08;16.60;92.50
55634;DHT22;41504;53.162;6.788;2023-08-17T06:13:34;16.80;92.50
55634;DHT22;41504;53.162;6.788;2023-08-17T06:16:01;16.80;92.50
55634;DHT22;41504;53.162;6.788;2023-08-17T06:18:29;16.80;92.30
55634;DHT22;41504;53.162;6.788;2023-08-17T06:20:55;16.80;92.30
55634;DHT22;41504;53.162;6.788;2023-08-17T06:23:20;16.80;92.30
55634;DHT22;41504;53.162;6.788;2023-08-17T06:25:49;16.90;92.20
55634;DHT22;41504;53.162;6.788;2023-08-17T06:28:15;16.80;92.10
55634;DHT22;41504;53.162;6.788;2023-08-17T06:30:41;16.80;92.10
55634;DHT22;41504;53.162;6.788;2023-08-17T06:33:07;16.80;92.10
55634;DHT22;41504;53.162;6.788;2023-08-17T06:35:32;16.80;92.10
55634;DHT22;41504;53.162;6.788;2023-08-17T06:37:58;16.90;92.20
55634;DHT22;41504;53.162;6.788;2023-08-17T06:40:24;16.90;92.10
55634;DHT22;41504;53.162;6.788;2023-08-17T06:42:50;16.90;92.00
55634;DHT22;41504;53.162;6.788;2023-08-17T06:45:17;17.00;92.00
55634;DHT22;41504;53.162;6.788;2023-08-17T06:47:44;17.00;91.90
55634;DHT22;41504;53.162;6.788;2023-08-17T06:50:11;17.00;91.90
55634;DHT22;41504;53.162;6.788;2023-08-17T06:52:40;17.00;91.80
55634;DHT22;41504;53.162;6.788;2023-08-17T06:55:09;17.00;91.80
55634;DHT22;41504;53.162;6.788;2023-08-17T06:57:36;17.10;91.70
55634;DHT22;41504;53.162;6.788;2023-08-17T07:00:05;17.10;91.60
55634;DHT22;41504;53.162;6.788;2023-08-17T07:02:31;17.10;91.40
55634;DHT22;41504;53.162;6.788;2023-08-17T07:04:57;17.10;91.40
55634;DHT22;41504;53.162;6.788;2023-08-17T07:07:23;17.10;91.30
55634;DHT22;41504;53.162;6.788;2023-08-17T07:09:48;17.10;91.20
55634;DHT22;41504;53.162;6.788;2023-08-17T07:12:14;17.10;91.10
55634;DHT22;41504;53.162;6.788;2023-08-17T07:14:40;17.10;91.10
55634;DHT22;41504;53.162;6.788;2023-08-17T07:17:05;17.20;91.10
55634;DHT22;41504;53.162;6.788;2023-08-17T07:19:31;17.20;91.10
55634;DHT22;41504;53.162;6.788;2023-08-17T07:21:57;17.20;90.90
55634;DHT22;41504;53.162;6.788;2023-08-17T07:24:23;17.20;90.90
55634;DHT22;41504;53.162;6.788;2023-08-17T07:26:48;17.30;90.90
55634;DHT22;41504;53.162;6.788;2023-08-17T07:29:15;17.30;90.80
55634;DHT22;41504;53.162;6.788;2023-08-17T07:31:40;17.40;90.70
55634;DHT22;41504;53.162;6.788;2023-08-17T07:34:06;17.40;90.60
55634;DHT22;41504;53.162;6.788;2023-08-17T07:36:33;17.50;90.50
55634;DHT22;41504;53.162;6.788;2023-08-17T07:38:59;17.50;90.30
55634;DHT22;41504;53.162;6.788;2023-08-17T07:41:25;17.50;90.10
55634;DHT22;41504;53.162;6.788;2023-08-17T07:43:54;17.50;90.00
55634;DHT22;41504;53.162;6.788;2023-08-17T07:46:20;17.60;89.70
55634;DHT22;41504;53.162;6.788;2023-08-17T07:48:46;17.60;89.80
55634;DHT22;41504;53.162;6.788;2023-08-17T07:51:15;17.60;89.60
55634;DHT22;41504;53.162;6.788;2023-08-17T07:53:40;17.60;89.30
55634;DHT22;41504;53.162;6.788;2023-08-17T07:56:09;17.60;89.40
55634;DHT22;41504;53.162;6.788;2023-08-17T07:58:35;17.60;89.30
55634;DHT22;41504;53.162;6.788;2023-08-17T08:01:04;17.60;89.10
55634;DHT22;41504;53.162;6.788;2023-08-17T08:03:37;17.60;89.00
55634;DHT22;41504;53.162;6.788;2023-08-17T08:06:02;17.60;89.20
55634;DHT22;41504;53.162;6.788;2023-08-17T08:08:28;17.60;89.20
55634;DHT22;41504;53.162;6.788;2023-08-17T08:10:54;17.60;89.20
55634;DHT22;41504;53.162;6.788;2023-08-17T08:13:20;17.60;89.40
55634;DHT22;41504;53.162;6.788;2023-08-17T08:15:46;17.60;89.40
55634;DHT22;41504;53.162;6.788;2023-08-17T08:18:12;17.60;89.30
55634;DHT22;41504;53.162;6.788;2023-08-17T08:20:38;17.70;89.30
55634;DHT22;41504;53.162;6.788;2023-08-17T08:23:04;17.70;89.30
55634;DHT22;41504;53.162;6.788;2023-08-17T08:25:29;17.80;89.30
55634;DHT22;41504;53.162;6.788;2023-08-17T08:27:55;17.80;89.10
55634;DHT22;41504;53.162;6.788;2023-08-17T08:30:21;17.80;88.80
55634;DHT22;41504;53.162;6.788;2023-08-17T08:32:47;17.90;88.70
55634;DHT22;41504;53.162;6.788;2023-08-17T08:35:12;17.90;88.60
55634;DHT22;41504;53.162;6.788;2023-08-17T08:37:38;18.00;88.50
55634;DHT22;41504;53.162;6.788;2023-08-17T08:40:10;18.00;88.30
55634;DHT22;41504;53.162;6.788;2023-08-17T08:42:39;18.10;88.20
55634;DHT22;41504;53.162;6.788;2023-08-17T08:45:09;18.10;87.80
55634;DHT22;41504;53.162;6.788;2023-08-17T08:47:39;18.10;87.70
55634;DHT22;41504;53.162;6.788;2023-08-17T08:50:13;18.20;87.60
55634;DHT22;41504;53.162;6.788;2023-08-17T08:52:49;18.30;87.30
55634;DHT22;41504;53.162;6.788;2023-08-17T08:55:18;18.30;87.00
55634;DHT22;41504;53.162;6.788;2023-08-17T08:57:44;18.40;86.90
55634;DHT22;41504;53.162;6.788;2023-08-17T09:00:12;18.50;86.80
55634;DHT22;41504;53.162;6.788;2023-08-17T09:02:38;18.60;86.80
55634;DHT22;41504;53.162;6.788;2023-08-17T09:05:10;18.70;86.50
55634;DHT22;41504;53.162;6.788;2023-08-17T09:07:37;18.80;85.90
55634;DHT22;41504;53.162;6.788;2023-08-17T09:10:03;18.90;85.90
55634;DHT22;41504;53.162;6.788;2023-08-17T09:12:30;18.90;85.20
55634;DHT22;41504;53.162;6.788;2023-08-17T09:14:56;19.00;85.00
55634;DHT22;41504;53.162;6.788;2023-08-17T09:17:26;18.90;84.50
55634;DHT22;41504;53.162;6.788;2023-08-17T09:19:52;18.90;84.50
55634;DHT22;41504;53.162;6.788;2023-08-17T09:22:25;18.80;84.70
55634;DHT22;41504;53.162;6.788;2023-08-17T09:25:04;18.80;84.90
55634;DHT22;41504;53.162;6.788;2023-08-17T09:27:31;18.90;85.10
55634;DHT22;41504;53.162;6.788;2023-08-17T09:30:09;19.00;84.90
55634;DHT22;41504;53.162;6.788;2023-08-17T09:32:35;19.10;84.60
55634;DHT22;41504;53.162;6.788;2023-08-17T09:35:05;19.20;84.40
55634;DHT22;41504;53.162;6.788;2023-08-17T09:37:34;19.20;84.60
55634;DHT22;41504;53.162;6.788;2023-08-17T09:40:00;19.30;83.90
55634;DHT22;41504;53.162;6.788;2023-08-17T09:42:26;19.30;84.30
55634;DHT22;41504;53.162;6.788;2023-08-17T09:44:53;19.30;83.90
55634;DHT22;41504;53.162;6.788;2023-08-17T09:47:19;19.30;83.80
55634;DHT22;41504;53.162;6.788;2023-08-17T09:49:55;19.30;83.60
55634;DHT22;41504;53.162;6.788;2023-08-17T09:52:23;19.30;83.80
55634;DHT22;41504;53.162;6.788;2023-08-17T09:54:49;19.30;83.90
55634;DHT22;41504;53.162;6.788;2023-08-17T09:57:17;19.30;84.00
55634;DHT22;41504;53.162;6.788;2023-08-17T09:59:43;19.20;84.10
55634;DHT22;41504;53.162;6.788;2023-08-17T10:02:19;19.20;84.10
55634;DHT22;41504;53.162;6.788;2023-08-17T10:04:51;19.20;84.10
55634;DHT22;41504;53.162;6.788;2023-08-17T10:07:20;19.20;84.00
55634;DHT22;41504;53.162;6.788;2023-08-17T10:09:58;19.20;84.20
55634;DHT22;41504;53.162;6.788;2023-08-17T10:12:27;19.30;84.10
55634;DHT22;41504;53.162;6.788;2023-08-17T10:15:03;19.30;84.30
55634;DHT22;41504;53.162;6.788;2023-08-17T10:17:35;19.30;84.20
55634;DHT22;41504;53.162;6.788;2023-08-17T10:20:01;19.40;84.30
55634;DHT22;41504;53.162;6.788;2023-08-17T10:22:48;19.50;84.00
55634;DHT22;41504;53.162;6.788;2023-08-17T10:25:17;19.60;83.80
55634;DHT22;41504;53.162;6.788;2023-08-17T10:27:44;19.60;83.30
55634;DHT22;41504;53.162;6.788;2023-08-17T10:30:10;19.70;83.40
55634;DHT22;41504;53.162;6.788;2023-08-17T10:32:37;19.80;83.50
55634;DHT22;41504;53.162;6.788;2023-08-17T10:35:23;20.00;83.40
55634;DHT22;41504;53.162;6.788;2023-08-17T10:37:49;20.20;82.30
55634;DHT22;41504;53.162;6.788;2023-08-17T10:40:15;20.20;82.00
55634;DHT22;41504;53.162;6.788;2023-08-17T10:42:41;20.30;81.70
55634;DHT22;41504;53.162;6.788;2023-08-17T10:45:25;20.30;81.60
55634;DHT22;41504;53.162;6.788;2023-08-17T10:48:00;20.40;81.80
55634;DHT22;41504;53.162;6.788;2023-08-17T10:50:26;20.60;82.00
55634;DHT22;41504;53.162;6.788;2023-08-17T10:52:53;20.70;81.40
55634;DHT22;41504;53.162;6.788;2023-08-17T10:55:36;20.90;81.00
55634;DHT22;41504;53.162;6.788;2023-08-17T10:58:08;21.00;80.10
55634;DHT22;41504;53.162;6.788;2023-08-17T11:00:36;21.10;80.00
55634;DHT22;41504;53.162;6.788;2023-08-17T11:03:09;21.30;79.60
55634;DHT22;41504;53.162;6.788;2023-08-17T11:05:55;21.40;79.20
55634;DHT22;41504;53.162;6.788;2023-08-17T11:08:32;21.40;78.20
55634;DHT22;41504;53.162;6.788;2023-08-17T11:11:10;21.40;78.90
55634;DHT22;41504;53.162;6.788;2023-08-17T11:13:38;21.30;78.60
55634;DHT22;41504;53.162;6.788;2023-08-17T11:16:05;21.30;78.70
55634;DHT22;41504;53.162;6.788;2023-08-17T11:18:35;21.20;78.80
55634;DHT22;41504;53.162;6.788;2023-08-17T11:21:05;21.20;79.10
55634;DHT22;41504;53.162;6.788;2023-08-17T11:23:33;21.20;79.20
55634;DHT22;41504;53.162;6.788;2023-08-17T11:25:59;21.30;79.10
55634;DHT22;41504;53.162;6.788;2023-08-17T11:28:25;21.20;78.80
55634;DHT22;41504;53.162;6.788;2023-08-17T11:33:25;21.20;78.90
55634;DHT22;41504;53.162;6.788;2023-08-17T11:35:51;21.20;79.10
55634;DHT22;41504;53.162;6.788;2023-08-17T11:38:19;21.20;79.00
55634;DHT22;41504;53.162;6.788;2023-08-17T11:40:45;21.30;78.70
55634;DHT22;41504;53.162;6.788;2023-08-17T11:43:11;21.30;79.10
55634;DHT22;41504;53.162;6.788;2023-08-17T11:45:37;21.40;78.90
55634;DHT22;41504;53.162;6.788;2023-08-17T11:48:02;21.50;78.60
55634;DHT22;41504;53.162;6.788;2023-08-17T11:50:29;21.60;78.30
55634;DHT22;41504;53.162;6.788;2023-08-17T11:52:55;21.60;78.00
55634;DHT22;41504;53.162;6.788;2023-08-17T11:55:20;21.70;77.90
55634;DHT22;41504;53.162;6.788;2023-08-17T11:57:46;21.60;77.90
55634;DHT22;41504;53.162;6.788;2023-08-17T12:00:18;21.70;77.90
55634;DHT22;41504;53.162;6.788;2023-08-17T12:02:49;21.80;77.80
55634;DHT22;41504;53.162;6.788;2023-08-17T12:05:25;21.90;77.50
55634;DHT22;41504;53.162;6.788;2023-08-17T12:07:56;22.00;77.30
55634;DHT22;41504;53.162;6.788;2023-08-17T12:10:22;22.10;76.90
55634;DHT22;41504;53.162;6.788;2023-08-17T12:12:50;22.20;77.00
55634;DHT22;41504;53.162;6.788;2023-08-17T12:15:17;22.30;76.30
55634;DHT22;41504;53.162;6.788;2023-08-17T12:17:46;22.40;75.70
55634;DHT22;41504;53.162;6.788;2023-08-17T12:20:21;22.40;76.00
55634;DHT22;41504;53.162;6.788;2023-08-17T12:22:47;22.40;76.50
55634;DHT22;41504;53.162;6.788;2023-08-17T12:25:14;22.30;76.10
55634;DHT22;41504;53.162;6.788;2023-08-17T12:27:41;22.20;76.30
55634;DHT22;41504;53.162;6.788;2023-08-17T12:30:23;22.20;76.40
55634;DHT22;41504;53.162;6.788;2023-08-17T12:32:49;22.20;76.50
55634;DHT22;41504;53.162;6.788;2023-08-17T12:35:15;22.20;76.60
55634;DHT22;41504;53.162;6.788;2023-08-17T12:37:41;22.20;76.70
55634;DHT22;41504;53.162;6.788;2023-08-17T12:40:07;22.20;76.90
55634;DHT22;41504;53.162;6.788;2023-08-17T12:42:33;22.20;76.80
55634;DHT22;41504;53.162;6.788;2023-08-17T12:44:59;22.20;76.90
55634;DHT22;41504;53.162;6.788;2023-08-17T12:47:24;22.10;77.00
55634;DHT22;41504;53.162;6.788;2023-08-17T12:49:50;22.00;77.30
55634;DHT22;41504;53.162;6.788;2023-08-17T12:52:16;21.90;77.50
55634;DHT22;41504;53.162;6.788;2023-08-17T12:54:42;21.80;77.70
55634;DHT22;41504;53.162;6.788;2023-08-17T12:57:07;21.80;77.90
55634;DHT22;41504;53.162;6.788;2023-08-17T12:59:33;21.70;78.10
55634;DHT22;41504;53.162;6.788;2023-08-17T13:01:59;21.60;78.10
55634;DHT22;41504;53.162;6.788;2023-08-17T13:04:25;21.60;78.40
55634;DHT22;41504;53.162;6.788;2023-08-17T13:06:51;21.60;78.10
55634;DHT22;41504;53.162;6.788;2023-08-17T13:09:17;21.60;78.10
55634;DHT22;41504;53.162;6.788;2023-08-17T13:11:45;21.60;78.00
55634;DHT22;41504;53.162;6.788;2023-08-17T13:14:12;21.60;77.80
55634;DHT22;41504;53.162;6.788;2023-08-17T13:16:38;21.70;77.60
55634;DHT22;41504;53.162;6.788;2023-08-17T13:19:04;21.70;77.50
55634;DHT22;41504;53.162;6.788;2023-08-17T13:21:29;21.70;77.40
55634;DHT22;41504;53.162;6.788;2023-08-17T13:23:55;21.60;77.50
55634;DHT22;41504;53.162;6.788;2023-08-17T13:26:24;21.60;77.60
55634;DHT22;41504;53.162;6.788;2023-08-17T13:28:49;21.60;77.80
55634;DHT22;41504;53.162;6.788;2023-08-17T13:31:15;21.50;78.20
55634;DHT22;41504;53.162;6.788;2023-08-17T13:33:41;21.50;78.20
55634;DHT22;41504;53.162;6.788;2023-08-17T13:36:07;21.50;78.40
55634;DHT22;41504;53.162;6.788;2023-08-17T13:38:32;21.40;78.40
55634;DHT22;41504;53.162;6.788;2023-08-17T13:40:58;21.40;78.40
55634;DHT22;41504;53.162;6.788;2023-08-17T13:43:24;21.30;78.40
55634;DHT22;41504;53.162;6.788;2023-08-17T13:45:49;21.20;78.70
55634;DHT22;41504;53.162;6.788;2023-08-17T13:48:15;21.20;79.00
55634;DHT22;41504;53.162;6.788;2023-08-17T13:50:41;21.20;79.00
55634;DHT22;41504;53.162;6.788;2023-08-17T13:53:07;21.10;79.20
55634;DHT22;41504;53.162;6.788;2023-08-17T13:55:32;21.10;79.40
55634;DHT22;41504;53.162;6.788;2023-08-17T13:57:59;21.20;79.60
55634;DHT22;41504;53.162;6.788;2023-08-17T14:00:25;21.20;79.70
55634;DHT22;41504;53.162;6.788;2023-08-17T14:02:52;21.20;79.70
55634;DHT22;41504;53.162;6.788;2023-08-17T14:05:18;21.10;79.80
55634;DHT22;41504;53.162;6.788;2023-08-17T14:07:43;21.10;80.20
55634;DHT22;41504;53.162;6.788;2023-08-17T14:10:09;21.10;80.40
55634;DHT22;41504;53.162;6.788;2023-08-17T14:12:35;21.10;80.30
55634;DHT22;41504;53.162;6.788;2023-08-17T14:15:01;21.00;80.40
55634;DHT22;41504;53.162;6.788;2023-08-17T14:17:26;21.00;80.50
55634;DHT22;41504;53.162;6.788;2023-08-17T14:19:52;21.00;80.70
55634;DHT22;41504;53.162;6.788;2023-08-17T14:22:18;20.90;80.80
55634;DHT22;41504;53.162;6.788;2023-08-17T14:24:44;20.90;81.00
55634;DHT22;41504;53.162;6.788;2023-08-17T14:27:10;20.90;81.00
55634;DHT22;41504;53.162;6.788;2023-08-17T14:29:35;20.90;81.70
55634;DHT22;41504;53.162;6.788;2023-08-17T14:32:01;20.80;81.30
55634;DHT22;41504;53.162;6.788;2023-08-17T14:34:27;20.80;81.50
55634;DHT22;41504;53.162;6.788;2023-08-17T14:36:52;20.80;81.50
55634;DHT22;41504;53.162;6.788;2023-08-17T14:39:18;20.80;81.60
55634;DHT22;41504;53.162;6.788;2023-08-17T14:41:44;20.80;81.80
55634;DHT22;41504;53.162;6.788;2023-08-17T14:44:09;20.80;81.80
55634;DHT22;41504;53.162;6.788;2023-08-17T14:46:35;20.70;81.90
55634;DHT22;41504;53.162;6.788;2023-08-17T14:49:04;20.70;82.00
55634;DHT22;41504;53.162;6.788;2023-08-17T14:51:29;20.70;82.10
55634;DHT22;41504;53.162;6.788;2023-08-17T14:53:55;20.70;82.20
55634;DHT22;41504;53.162;6.788;2023-08-17T14:56:21;20.70;82.30
55634;DHT22;41504;53.162;6.788;2023-08-17T14:58:48;20.70;82.30
55634;DHT22;41504;53.162;6.788;2023-08-17T15:01:13;20.70;82.40
55634;DHT22;41504;53.162;6.788;2023-08-17T15:03:39;20.70;82.40
55634;DHT22;41504;53.162;6.788;2023-08-17T15:06:06;20.70;82.50
55634;DHT22;41504;53.162;6.788;2023-08-17T15:08:32;20.70;82.50
55634;DHT22;41504;53.162;6.788;2023-08-17T15:10:58;20.70;82.70
55634;DHT22;41504;53.162;6.788;2023-08-17T15:13:27;20.70;82.90
55634;DHT22;41504;53.162;6.788;2023-08-17T15:15:53;20.60;82.90
55634;DHT22;41504;53.162;6.788;2023-08-17T15:18:19;20.60;83.10
55634;DHT22;41504;53.162;6.788;2023-08-17T15:20:45;20.60;83.30
55634;DHT22;41504;53.162;6.788;2023-08-17T15:23:11;20.60;83.40
55634;DHT22;41504;53.162;6.788;2023-08-17T15:25:37;20.60;83.60
55634;DHT22;41504;53.162;6.788;2023-08-17T15:28:02;20.50;83.70
55634;DHT22;41504;53.162;6.788;2023-08-17T15:30:28;20.60;83.70
55634;DHT22;41504;53.162;6.788;2023-08-17T15:32:54;20.50;83.90